Etusivu
METAR-TAF:

METAR-TAF

Lentoasemat :

Sandy Lake, Ontario, Kanada

Leveyspiiri: 53-03-51N, Pituuspiiri: 093-20-40W, korkeus merenpinnasta: 290 m

Tämänhetkinen sää

Tämä raportti tehtiin 23 minuuttia sitten, kello 15.00 UTC
Tuuli 5 kn eri suunnista
Lämpötila 10°C
Kosteus 46%
Ilmanpaine 1025 hPa
Näkyvyys: 14.5 km
selkeää

METAR: CZSJ 061500Z AUTO VRB05KT 9SM CLR 10/M01 A3028 RMK SLP265

Aika: 10:23 (15:23 UTC)

Sääennuste

Tämä raportti tehtiin 5 tuntia ja 45 minuuttia sitten, kello 09.38 UTC
Ennuste voimassa 06. päivästä klo 10 UTC - 06. päivään klo 22 UTC
Tuuli 3 kn eri suunnista
Näkyvyys: 10 km
selkeää
Todennäköisyys 30%
06. päivästä klo 10 UTC - 06. päivään klo 13 UTC
Näkyvyys: 3.2 km
utua

TAF: CZSJ 060938Z 0610/0622 VRB03KT P6SM SKC PROB30 0610/0613 2SM BR RMK FCST BASED ON AUTO OBS. NXT FCST BY 061600Z

Säähavainnot ja -ennusteet yli 4000 lentoasemalta (METAR- ja TAF-raportit).

Käytössä olevat sääasemat on merkitty karttaan keltaisilla ja punaisilla pisteillä.

Aseta hiiri pisteen päälle nähdäksesi sääaseman nimen.

Klikkaa sitten nähdäksesi säähavainnot ja -ennusteet.

Kartan vaihtaminen: klikkaa mustalla rastilla varustettuja vihreitä pisteitä, niin voit zoomata sisään; viivalla varustettua vihreää pistettä, niin voit zoomata ulos tai vihreitä nuolia, niin pääset viereisille kartoille.


METAR-TAF: